Time;durP1;ratioP1;P1;durP2;ratioP2;P2;SDS_P1;SDS_P2;PMS_P1;PMS_P2;Temp;Humidity;BMP_temperature;BMP_pressure;BME280_temperature;BME280_humidity;BME280_pressure;Samples;Min_cycle;Max_cycle;Signal;HPM_P1;HPM_P2
2021/08/02 00:01:10;;;;;;;1.37;1.27;;;18.60;1.00;;;;;;4976835;28;20490;-82
2021/08/02 00:03:46;;;;;;;1.30;1.20;;;18.50;1.00;;;;;;4981242;28;20461;-82
2021/08/02 00:06:21;;;;;;;1.73;1.20;;;18.50;1.00;;;;;;4977796;28;20454;-82
2021/08/02 00:08:57;;;;;;;1.00;1.00;;;18.50;1.00;;;;;;4989706;28;20457;-82
2021/08/02 00:11:32;;;;;;;1.87;1.20;;;18.50;1.00;;;;;;4973228;28;20479;-81
2021/08/02 00:14:04;;;;;;;1.10;1.10;;;18.60;1.00;;;;;;4988340;28;20464;-82
2021/08/02 00:16:34;;;;;;;1.50;1.10;;;18.50;1.00;;;;;;4987450;28;20471;-81
2021/08/02 00:19:03;;;;;;;1.57;1.37;;;18.50;1.00;;;;;;4968404;28;20465;-81
2021/08/02 00:21:32;;;;;;;1.47;1.20;;;18.40;1.00;;;;;;4981456;28;20485;-82
2021/08/02 00:24:00;;;;;;;1.40;1.30;;;18.30;1.00;;;;;;4976173;28;21116;-81
2021/08/02 00:26:30;;;;;;;1.47;1.37;;;18.40;1.00;;;;;;4981311;28;20471;-82
2021/08/02 00:28:59;;;;;;;1.90;1.20;;;18.40;1.00;;;;;;4976527;28;20451;-81
2021/08/02 00:31:29;;;;;;;1.17;1.07;;;18.30;1.00;;;;;;4972093;28;20815;-81
2021/08/02 00:33:57;;;;;;;1.30;1.20;;;18.40;1.00;;;;;;4974763;28;20569;-81
2021/08/02 00:36:34;;;;;;;1.40;1.30;;;18.40;1.00;;;;;;4984511;28;20457;-81
2021/08/02 00:39:05;;;;;;;1.33;1.20;;;18.40;1.00;;;;;;4994841;28;20512;-81
2021/08/02 00:41:57;;;;;;;1.10;1.00;;;18.50;1.00;;;;;;4977225;28;20489;-81
2021/08/02 00:44:47;;;;;;;3.90;1.43;;;18.60;1.00;;;;;;4990651;28;20459;-82
2021/08/02 00:47:19;;;;;;;1.27;0.90;;;18.60;1.00;;;;;;4982073;28;21188;-82
2021/08/02 00:49:51;;;;;;;1.30;1.20;;;18.60;1.00;;;;;;4982292;28;20461;-80
2021/08/02 00:52:21;;;;;;;1.20;1.10;;;18.60;1.00;;;;;;4992572;28;20457;-81
2021/08/02 00:54:50;;;;;;;1.80;1.30;;;18.60;1.00;;;;;;4981590;28;20447;-81
2021/08/02 00:57:22;;;;;;;1.40;1.10;;;18.60;1.00;;;;;;4979484;28;20466;-82
2021/08/02 00:59:56;;;;;;;1.40;1.20;;;18.70;1.00;;;;;;4982687;28;20466;-82
2021/08/02 01:02:26;;;;;;;2.10;1.10;;;18.70;1.00;;;;;;4972312;28;20511;-81
2021/08/02 01:04:55;;;;;;;2.27;1.00;;;18.70;1.00;;;;;;4975268;28;20474;-81
2021/08/02 01:07:24;;;;;;;1.30;1.20;;;18.70;1.00;;;;;;4977986;28;21025;-82
2021/08/02 01:09:53;;;;;;;1.20;1.10;;;18.70;1.00;;;;;;4982453;28;20458;-81
2021/08/02 01:12:23;;;;;;;1.53;1.00;;;18.70;1.00;;;;;;4979485;28;20463;-81
2021/08/02 01:14:54;;;;;;;2.73;1.40;;;18.70;1.00;;;;;;4973946;28;21046;-80
2021/08/02 01:17:22;;;;;;;1.07;0.97;;;18.80;1.00;;;;;;4967859;28;20498;-81
2021/08/02 01:19:52;;;;;;;1.30;1.20;;;18.70;1.00;;;;;;4974467;28;20481;-82
2021/08/02 01:22:29;;;;;;;1.20;1.10;;;18.80;1.00;;;;;;4972539;28;20973;-80
2021/08/02 01:24:57;;;;;;;2.13;1.33;;;18.90;1.00;;;;;;4979649;28;20831;-81
2021/08/02 01:27:45;;;;;;;1.00;1.00;;;19.00;1.00;;;;;;4978130;28;20502;-81
2021/08/02 01:30:20;;;;;;;2.13;1.20;;;19.00;1.00;;;;;;4975772;28;20474;-82
2021/08/02 01:32:49;;;;;;;1.37;1.27;;;19.00;1.00;;;;;;4978135;28;20453;-83
2021/08/02 01:35:19;;;;;;;1.70;1.10;;;19.00;1.00;;;;;;4973236;28;20458;-81
2021/08/02 01:37:49;;;;;;;1.10;1.00;;;19.00;1.00;;;;;;4979518;28;20496;-81
2021/08/02 01:40:17;;;;;;;1.50;1.20;;;18.90;1.00;;;;;;4987285;28;20487;-82
2021/08/02 01:42:45;;;;;;;2.00;1.10;;;18.90;1.00;;;;;;4975734;28;20472;-82
2021/08/02 01:45:15;;;;;;;1.23;1.13;;;18.90;1.00;;;;;;4966633;28;20888;-82
2021/08/02 01:48:06;;;;;;;1.43;1.00;;;18.80;1.00;;;;;;4970856;28;20506;-81
2021/08/02 01:50:45;;;;;;;1.20;1.10;;;18.60;1.00;;;;;;4978913;28;20498;-82
2021/08/02 01:53:22;;;;;;;3.90;1.20;;;18.60;1.00;;;;;;4988892;28;20509;-82
2021/08/02 01:55:58;;;;;;;1.63;1.03;;;18.50;1.00;;;;;;4987930;28;20452;-82
2021/08/02 01:58:31;;;;;;;1.80;1.30;;;18.50;1.00;;;;;;4982173;28;20459;-82
2021/08/02 02:00:59;;;;;;;1.43;1.07;;;18.40;1.00;;;;;;4973976;28;20533;-81
2021/08/02 02:03:29;;;;;;;5.27;1.57;;;18.30;1.00;;;;;;4965493;28;20503;-81
2021/08/02 02:06:00;;;;;;;1.30;1.20;;;18.30;1.00;;;;;;4966808;28;20465;-82
2021/08/02 02:08:36;;;;;;;1.27;1.27;;;18.30;1.00;;;;;;4972617;28;20470;-82
2021/08/02 02:11:05;;;;;;;1.23;1.13;;;18.30;1.00;;;;;;4972291;28;21048;-81
2021/08/02 02:13:36;;;;;;;1.40;1.10;;;18.30;1.00;;;;;;4972853;28;20511;-79
2021/08/02 02:16:06;;;;;;;1.73;0.97;;;18.30;1.00;;;;;;4991171;28;20511;-81
2021/08/02 02:18:40;;;;;;;1.17;1.00;;;18.30;1.00;;;;;;4972051;28;20466;-81
2021/08/02 02:21:11;;;;;;;2.20;1.20;;;18.30;1.00;;;;;;4972839;28;21269;-81
2021/08/02 02:23:41;;;;;;;4.33;1.17;;;18.30;1.00;;;;;;4973817;28;20448;-81
2021/08/02 02:26:10;;;;;;;1.33;1.10;;;18.40;1.00;;;;;;4969292;28;20458;-81
2021/08/02 02:28:40;;;;;;;1.83;1.43;;;18.40;1.00;;;;;;4985434;28;21146;-81
2021/08/02 02:31:09;;;;;;;1.00;1.00;;;18.40;1.00;;;;;;4982147;28;20483;-81
2021/08/02 02:33:37;;;;;;;3.53;1.10;;;18.50;1.00;;;;;;4963147;28;20831;-81
2021/08/02 02:36:06;;;;;;;1.10;1.00;;;18.60;1.00;;;;;;4978693;28;20520;-81
2021/08/02 02:38:36;;;;;;;1.20;1.03;;;18.60;1.00;;;;;;4990123;28;20945;-82
2021/08/02 02:41:06;;;;;;;2.17;1.13;;;18.50;1.00;;;;;;4979901;28;20564;-81
2021/08/02 02:43:34;;;;;;;1.30;1.20;;;18.40;1.00;;;;;;4967007;28;20839;-81
2021/08/02 02:46:03;;;;;;;1.43;1.03;;;18.30;1.00;;;;;;4966049;28;20528;-80
2021/08/02 02:48:32;;;;;;;1.63;1.10;;;18.30;1.00;;;;;;4981663;28;20470;-81
2021/08/02 02:51:01;;;;;;;2.33;1.20;;;18.30;1.00;;;;;;4970405;28;20478;-80
2021/08/02 02:53:30;;;;;;;1.83;1.00;;;18.20;1.00;;;;;;4975911;28;20456;-82
2021/08/02 02:56:00;;;;;;;1.67;1.00;;;18.30;1.00;;;;;;4976904;28;20446;-81
2021/08/02 02:58:29;;;;;;;2.60;1.20;;;18.30;1.00;;;;;;4981582;28;20442;-81
2021/08/02 03:00:57;;;;;;;1.80;1.20;;;18.30;1.00;;;;;;4965380;28;20479;-82
2021/08/02 03:03:27;;;;;;;1.20;1.10;;;18.40;1.00;;;;;;4975047;28;20537;-81
2021/08/02 03:05:55;;;;;;;1.60;1.40;;;18.40;1.00;;;;;;4977382;28;20878;-81
2021/08/02 03:08:26;;;;;;;2.20;1.10;;;18.40;1.00;;;;;;4988300;28;20445;-81
2021/08/02 03:10:56;;;;;;;2.00;1.30;;;18.40;1.00;;;;;;4977514;28;20488;-81
2021/08/02 03:13:24;;;;;;;1.20;1.10;;;18.50;1.00;;;;;;4977943;28;20454;-82
2021/08/02 03:15:54;;;;;;;1.63;1.07;;;18.50;1.00;;;;;;4972299;28;20470;-81
2021/08/02 03:18:22;;;;;;;1.13;1.00;;;18.50;1.00;;;;;;4971182;28;20810;-81
2021/08/02 03:20:50;;;;;;;1.47;1.00;;;18.40;1.00;;;;;;4973093;28;20507;-81
2021/08/02 03:23:26;;;;;;;1.90;1.03;;;18.30;1.00;;;;;;4975758;28;20458;-82
2021/08/02 03:25:59;;;;;;;1.87;1.00;;;18.30;1.00;;;;;;4971840;28;20782;-81
2021/08/02 03:28:32;;;;;;;1.40;1.13;;;18.20;1.00;;;;;;4987587;28;20509;-81
2021/08/02 03:31:07;;;;;;;1.50;1.40;;;18.10;1.00;;;;;;4982606;28;20531;-82
2021/08/02 03:33:37;;;;;;;1.70;1.10;;;18.10;1.00;;;;;;4976048;28;20522;-81
2021/08/02 03:36:10;;;;;;;1.80;1.20;;;18.10;1.00;;;;;;4965855;28;20858;-81
2021/08/02 03:38:39;;;;;;;1.20;0.93;;;18.00;1.00;;;;;;4963478;28;20445;-81
2021/08/02 03:41:09;;;;;;;2.00;1.17;;;18.10;1.00;;;;;;4972744;28;20473;-81
2021/08/02 03:43:39;;;;;;;1.40;1.30;;;18.10;1.00;;;;;;4972509;28;20509;-80
2021/08/02 03:46:11;;;;;;;1.93;1.10;;;18.00;1.00;;;;;;4967223;28;20490;-81
2021/08/02 03:48:40;;;;;;;1.60;1.10;;;18.10;1.00;;;;;;4970177;28;20439;-81
2021/08/02 03:51:08;;;;;;;0.93;0.90;;;18.10;1.00;;;;;;4972209;28;21035;-81
2021/08/02 03:53:41;;;;;;;1.00;1.00;;;18.00;1.00;;;;;;4982956;28;20513;-81
2021/08/02 03:56:10;;;;;;;1.93;1.20;;;18.20;1.00;;;;;;4972147;28;20489;-81
2021/08/02 03:58:38;;;;;;;1.67;1.10;;;18.10;1.00;;;;;;4979766;28;20457;-80
2021/08/02 04:01:07;;;;;;;3.67;1.23;;;18.10;1.00;;;;;;4972814;28;20532;-81
2021/08/02 04:03:36;;;;;;;1.33;1.27;;;18.00;1.00;;;;;;4982980;28;20531;-81
2021/08/02 04:06:04;;;;;;;4.00;1.07;;;18.00;1.00;;;;;;4974369;28;20576;-80
2021/08/02 04:08:33;;;;;;;2.17;1.60;;;18.00;1.00;;;;;;4979451;28;20465;-81
2021/08/02 04:11:01;;;;;;;1.20;0.90;;;18.00;1.00;;;;;;4972740;28;20467;-81
2021/08/02 04:13:29;;;;;;;1.50;1.07;;;18.00;1.00;;;;;;4974009;28;20457;-80
2021/08/02 04:15:57;;;;;;;1.60;1.50;;;17.90;1.00;;;;;;4972975;28;20465;-80
2021/08/02 04:18:26;;;;;;;1.40;1.10;;;17.90;1.00;;;;;;4988403;28;20549;-80
2021/08/02 04:20:56;;;;;;;1.10;0.90;;;17.90;1.00;;;;;;4974971;28;20775;-81
2021/08/02 04:23:24;;;;;;;1.50;1.23;;;17.90;12.70;;;;;;4986292;28;20888;-81
2021/08/02 04:25:52;;;;;;;3.60;1.10;;;17.90;1.00;;;;;;4973195;28;20466;-81
2021/08/02 04:28:20;;;;;;;1.20;1.10;;;17.90;1.00;;;;;;4977605;28;20549;-80
2021/08/02 04:30:48;;;;;;;1.23;1.13;;;18.00;1.00;;;;;;4963198;28;20500;-82
2021/08/02 04:33:17;;;;;;;1.33;1.03;;;18.00;1.00;;;;;;4980010;28;20459;-82
2021/08/02 04:35:45;;;;;;;1.30;1.10;;;18.00;1.00;;;;;;4983216;28;20486;-81
2021/08/02 04:38:15;;;;;;;1.80;1.30;;;18.00;1.00;;;;;;4983823;28;21010;-81
2021/08/02 04:40:43;;;;;;;1.90;1.40;;;18.20;1.00;;;;;;4966027;28;20478;-80
2021/08/02 04:43:11;;;;;;;1.30;1.20;;;18.30;1.00;;;;;;4956549;28;20471;-81
2021/08/02 04:45:39;;;;;;;2.93;1.10;;;18.20;1.00;;;;;;4977971;28;20466;-80
2021/08/02 04:48:07;;;;;;;1.30;1.17;;;18.30;1.00;;;;;;4970616;28;20475;-80
2021/08/02 04:50:35;;;;;;;1.20;1.10;;;18.40;1.00;;;;;;4974331;28;20483;-81
2021/08/02 04:53:04;;;;;;;1.37;1.27;;;18.40;1.00;;;;;;4986462;28;20453;-81
2021/08/02 04:55:33;;;;;;;2.43;1.80;;;18.40;1.00;;;;;;4985514;28;20472;-81
2021/08/02 04:58:01;;;;;;;2.73;1.20;;;18.50;1.00;;;;;;4976862;28;20458;-82
2021/08/02 05:00:29;;;;;;;1.17;1.07;;;18.60;1.00;;;;;;4975406;28;20875;-82
2021/08/02 05:02:57;;;;;;;1.43;1.10;;;18.60;1.00;;;;;;4974482;28;20877;-82
2021/08/02 05:05:26;;;;;;;2.73;0.93;;;18.60;1.00;;;;;;4975460;28;20976;-81
2021/08/02 05:07:55;;;;;;;1.47;1.00;;;18.60;1.00;;;;;;4977008;28;20454;-81
2021/08/02 05:10:23;;;;;;;3.50;1.10;;;18.60;1.00;;;;;;4974814;28;21012;-82
2021/08/02 05:12:53;;;;;;;2.20;1.20;;;18.60;1.00;;;;;;4974856;28;20463;-81
2021/08/02 05:15:21;;;;;;;1.30;1.20;;;18.70;1.00;;;;;;4974815;28;20465;-82
2021/08/02 05:17:49;;;;;;;1.53;1.10;;;18.60;1.00;;;;;;4974369;28;20446;-79
2021/08/02 05:20:19;;;;;;;1.50;1.00;;;18.50;1.00;;;;;;4974920;28;20482;-82
2021/08/02 05:22:49;;;;;;;1.30;1.20;;;18.40;1.00;;;;;;4958845;28;20494;-82
2021/08/02 05:25:17;;;;;;;1.53;1.43;;;18.40;1.00;;;;;;4986608;28;20463;-83
2021/08/02 05:27:49;;;;;;;1.30;1.10;;;18.30;1.00;;;;;;4976126;28;20545;-83
2021/08/02 05:30:19;;;;;;;1.50;1.40;;;18.20;1.00;;;;;;4976301;28;20473;-82
2021/08/02 05:32:47;;;;;;;1.40;1.30;;;18.20;1.00;;;;;;4988352;28;20532;-84
2021/08/02 05:35:16;;;;;;;1.03;1.00;;;18.20;1.00;;;;;;4980774;28;20443;-84
2021/08/02 05:37:44;;;;;;;2.30;1.00;;;18.20;1.00;;;;;;4973747;28;20505;-82
2021/08/02 05:40:14;;;;;;;1.30;0.93;;;18.30;1.00;;;;;;4974886;28;20500;-83
2021/08/02 05:42:42;;;;;;;1.20;1.10;;;18.30;1.00;;;;;;4984392;28;20493;-81
2021/08/02 05:45:11;;;;;;;1.87;1.00;;;18.30;1.00;;;;;;4975279;28;20512;-83
2021/08/02 05:47:41;;;;;;;1.67;1.57;;;18.30;1.00;;;;;;4979831;28;20468;-82
2021/08/02 05:50:10;;;;;;;1.30;1.20;;;18.30;1.00;;;;;;4985654;28;20478;-81
2021/08/02 05:52:41;;;;;;;1.13;0.90;;;18.20;1.00;;;;;;4976639;28;20514;-83
2021/08/02 05:55:12;;;;;;;1.20;1.10;;;18.20;1.00;;;;;;4974485;28;20462;-82
2021/08/02 05:57:41;;;;;;;1.30;1.20;;;18.20;1.00;;;;;;4975954;28;20888;-83
2021/08/02 06:00:10;;;;;;;1.40;1.30;;;18.10;1.00;;;;;;4985465;28;20482;-83
2021/08/02 06:02:38;;;;;;;1.10;1.00;;;18.10;1.00;;;;;;4991374;28;20481;-83
2021/08/02 06:05:10;;;;;;;1.47;1.00;;;18.00;1.00;;;;;;4979552;28;20461;-83
2021/08/02 06:07:41;;;;;;;3.37;1.00;;;18.00;1.00;;;;;;4986789;28;20469;-83
2021/08/02 06:10:11;;;;;;;1.40;1.17;;;18.10;1.00;;;;;;4979098;28;20568;-83
2021/08/02 06:12:40;;;;;;;1.50;1.00;;;18.10;1.00;;;;;;4974787;28;20461;-83
2021/08/02 06:15:11;;;;;;;2.80;1.07;;;18.10;1.00;;;;;;4981988;28;20474;-82
2021/08/02 06:17:40;;;;;;;1.10;1.00;;;18.10;1.00;;;;;;4987930;28;20486;-82
2021/08/02 06:20:10;;;;;;;1.20;1.10;;;18.10;1.00;;;;;;4990195;28;20483;-82
2021/08/02 06:22:39;;;;;;;1.23;1.00;;;18.10;1.00;;;;;;4986099;28;20480;-83
2021/08/02 06:25:08;;;;;;;1.47;1.00;;;18.10;1.00;;;;;;4989786;28;20457;-83
2021/08/02 06:27:36;;;;;;;1.03;1.03;;;18.10;1.00;;;;;;4985899;28;21025;-82
2021/08/02 06:30:06;;;;;;;1.10;1.00;;;18.00;1.00;;;;;;4982873;28;20924;-81
2021/08/02 06:32:34;;;;;;;1.03;1.00;;;18.10;1.00;;;;;;4978646;28;20457;-81
2021/08/02 06:35:02;;;;;;;1.20;1.10;;;18.10;1.00;;;;;;4989946;28;20461;-81
2021/08/02 06:37:32;;;;;;;1.20;1.10;;;18.30;1.00;;;;;;4986437;28;20454;-82
2021/08/02 06:40:00;;;;;;;1.50;1.10;;;18.50;1.00;;;;;;4964847;28;20479;-83
2021/08/02 06:42:28;;;;;;;7.53;2.20;;;18.60;1.00;;;;;;4971247;28;20450;-84
2021/08/02 06:44:56;;;;;;;1.23;1.10;;;18.50;1.00;;;;;;4970878;28;20466;-83
2021/08/02 06:47:24;;;;;;;1.90;1.20;;;18.50;1.00;;;;;;4970767;28;21247;-84
2021/08/02 06:49:52;;;;;;;1.60;1.20;;;18.30;1.00;;;;;;4970974;28;20887;-84
2021/08/02 06:52:21;;;;;;;1.50;0.97;;;18.30;1.00;;;;;;4971549;28;20454;-83
2021/08/02 06:54:50;;;;;;;1.67;1.57;;;18.30;1.00;;;;;;4970118;28;20822;-83
2021/08/02 06:57:19;;;;;;;1.20;1.10;;;18.30;1.00;;;;;;4984789;28;21082;-83
2021/08/02 06:59:47;;;;;;;1.20;1.10;;;18.40;1.00;;;;;;4972010;28;20556;-83
2021/08/02 07:02:15;;;;;;;1.17;1.00;;;18.50;1.00;;;;;;4970805;28;20470;-83
2021/08/02 07:04:43;;;;;;;1.47;1.10;;;18.70;1.00;;;;;;4971607;28;20490;-81
2021/08/02 07:07:11;;;;;;;1.87;1.10;;;18.70;1.00;;;;;;4973141;28;21336;-83
2021/08/02 07:09:39;;;;;;;2.10;1.20;;;18.60;1.00;;;;;;4970141;28;20458;-82
2021/08/02 07:12:09;;;;;;;4.20;1.10;;;18.60;1.00;;;;;;4972698;28;20522;-83
2021/08/02 07:14:37;;;;;;;2.57;1.30;;;18.60;1.00;;;;;;4969420;28;20458;-82
2021/08/02 07:17:06;;;;;;;1.70;1.20;;;18.60;1.00;;;;;;4971162;28;20978;-83
2021/08/02 07:19:34;;;;;;;1.40;0.93;;;18.50;1.00;;;;;;4970621;28;20466;-84
2021/08/02 07:22:02;;;;;;;1.57;1.10;;;18.60;1.00;;;;;;4972894;28;21045;-83
2021/08/02 07:24:31;;;;;;;4.30;1.20;;;18.70;1.00;;;;;;4971014;28;20485;-83
2021/08/02 07:26:59;;;;;;;1.53;1.00;;;18.90;1.00;;;;;;4972136;28;20952;-81
2021/08/02 07:29:28;;;;;;;1.57;1.10;;;18.90;1.00;;;;;;4984673;28;20814;-83
2021/08/02 07:31:57;;;;;;;2.10;1.20;;;18.90;1.00;;;;;;4967899;28;20489;-83
2021/08/02 07:34:25;;;;;;;1.17;1.07;;;18.90;1.00;;;;;;4971131;28;20463;-83
2021/08/02 07:36:53;;;;;;;1.00;1.00;;;18.80;1.00;;;;;;4968481;28;20466;-83
2021/08/02 07:39:21;;;;;;;1.53;1.23;;;18.90;1.00;;;;;;4982388;28;20986;-83
2021/08/02 07:41:49;;;;;;;1.63;1.20;;;18.80;1.00;;;;;;4970388;28;20482;-83
2021/08/02 07:44:17;;;;;;;1.60;1.17;;;19.00;1.00;;;;;;4971951;28;20512;-83
2021/08/02 07:46:47;;;;;;;1.07;0.97;;;19.00;1.00;;;;;;4968912;28;20550;-83
2021/08/02 07:49:15;;;;;;;2.70;1.10;;;19.20;1.00;;;;;;4970269;28;20467;-82
2021/08/02 07:51:43;;;;;;;1.50;1.40;;;19.20;1.00;;;;;;4973999;28;20477;-84
2021/08/02 07:54:11;;;;;;;1.10;1.00;;;19.10;1.00;;;;;;4969948;28;20546;-83
2021/08/02 07:56:40;;;;;;;1.43;1.20;;;19.10;1.00;;;;;;4970206;28;20455;-83
2021/08/02 07:59:08;;;;;;;1.43;1.00;;;19.20;1.00;;;;;;4970455;28;20902;-83
2021/08/02 08:01:37;;;;;;;2.60;1.00;;;19.30;1.00;;;;;;4986022;28;20933;-84
2021/08/02 08:04:06;;;;;;;3.33;1.20;;;19.30;1.00;;;;;;4965517;28;21014;-84
2021/08/02 08:06:35;;;;;;;1.17;1.10;;;19.40;1.00;;;;;;4969315;28;20492;-84
2021/08/02 08:09:03;;;;;;;1.80;0.90;;;19.40;1.00;;;;;;4967749;28;20486;-83
2021/08/02 08:11:31;;;;;;;1.83;1.10;;;19.50;1.00;;;;;;4968600;28;20562;-84
2021/08/02 08:13:59;;;;;;;1.83;0.90;;;19.60;1.00;;;;;;4966514;28;20462;-84
2021/08/02 08:16:27;;;;;;;1.20;0.93;;;19.70;1.00;;;;;;4966659;28;20460;-83
2021/08/02 08:18:56;;;;;;;1.77;1.10;;;19.70;1.00;;;;;;4971063;28;20451;-83
2021/08/02 08:21:26;;;;;;;1.17;1.10;;;19.80;1.00;;;;;;4977278;28;20479;-84
2021/08/02 08:23:55;;;;;;;1.60;0.87;;;19.90;1.00;;;;;;4968891;28;20498;-83
2021/08/02 08:26:23;;;;;;;1.70;1.20;;;19.90;99.90;;;;;;4974026;28;20814;-83
2021/08/02 08:28:52;;;;;;;2.60;1.10;;;19.90;99.90;;;;;;4975257;28;20448;-83
2021/08/02 08:31:20;;;;;;;1.00;1.00;;;19.80;99.90;;;;;;4974792;28;20573;-85
2021/08/02 08:33:49;;;;;;;1.20;1.10;;;19.90;99.90;;;;;;4969932;28;21001;-83
2021/08/02 08:36:18;;;;;;;3.10;0.93;;;20.00;99.90;;;;;;4973989;28;20844;-83
2021/08/02 08:38:48;;;;;;;1.10;1.00;;;20.00;99.90;;;;;;4972965;28;20537;-83
2021/08/02 08:41:18;;;;;;;1.63;1.10;;;19.80;99.90;;;;;;4962421;28;20474;-83
2021/08/02 08:43:47;;;;;;;1.20;0.90;;;19.90;99.90;;;;;;4978039;28;20458;-83
2021/08/02 08:46:18;;;;;;;1.20;0.90;;;20.10;99.90;;;;;;4973889;28;20466;-83
2021/08/02 08:48:47;;;;;;;1.27;1.10;;;20.10;99.90;;;;;;4973416;28;20507;-82
2021/08/02 08:51:15;;;;;;;1.30;1.23;;;20.10;99.90;;;;;;4976086;28;20471;-82
2021/08/02 08:53:45;;;;;;;1.50;1.40;;;20.20;99.90;;;;;;4978824;28;20662;-81
2021/08/02 08:56:16;;;;;;;1.30;1.20;;;20.20;99.90;;;;;;4980220;28;20431;-82
2021/08/02 08:58:45;;;;;;;1.43;1.33;;;20.10;99.90;;;;;;4978253;28;20531;-83
2021/08/02 09:01:14;;;;;;;1.83;1.10;;;19.90;99.90;;;;;;4978139;28;20506;-83
2021/08/02 09:03:52;;;;;;;1.53;1.07;;;19.90;99.90;;;;;;4969434;28;20458;-83
2021/08/02 09:06:21;;;;;;;1.43;1.20;;;20.20;99.90;;;;;;4969733;28;20467;-83
2021/08/02 09:08:49;;;;;;;1.33;0.90;;;20.30;99.90;;;;;;4974507;28;20917;-82
2021/08/02 09:11:20;;;;;;;1.40;1.13;;;20.30;99.90;;;;;;4971861;28;20887;-83
2021/08/02 09:13:49;;;;;;;1.10;1.00;;;20.30;99.90;;;;;;4989939;28;20975;-83
2021/08/02 09:16:20;;;;;;;1.57;1.47;;;20.40;99.90;;;;;;4975326;28;20502;-83
2021/08/02 09:19:02;;;;;;;1.47;1.30;;;20.30;99.90;;;;;;4975758;28;21041;-82
2021/08/02 09:21:40;;;;;;;1.60;1.10;;;20.30;1.00;;;;;;4972120;28;20901;-82
2021/08/02 09:24:09;;;;;;;1.10;0.97;;;20.50;1.00;;;;;;4979329;28;20454;-83
2021/08/02 09:26:40;;;;;;;1.53;1.43;;;20.70;99.90;;;;;;4978413;28;20467;-83
2021/08/02 09:29:10;;;;;;;1.10;1.10;;;20.80;99.90;;;;;;4973766;28;20689;-83
2021/08/02 09:31:39;;;;;;;2.10;1.00;;;20.80;99.90;;;;;;4972152;28;20479;-83
2021/08/02 09:34:09;;;;;;;1.58;1.00;;;20.90;99.90;;;;;;4973582;28;20459;-84
2021/08/02 09:36:40;;;;;;;1.07;0.97;;;21.00;99.90;;;;;;4986016;28;20290;-84
2021/08/02 09:39:10;;;;;;;2.00;1.07;;;20.80;99.90;;;;;;4971773;28;20447;-84
2021/08/02 09:41:39;;;;;;;1.53;1.13;;;20.90;99.90;;;;;;4969047;28;21109;-83
2021/08/02 09:44:18;;;;;;;1.57;1.07;;;20.80;99.90;;;;;;4960821;28;21008;-83
2021/08/02 09:46:56;;;;;;;1.03;1.00;;;20.80;99.90;;;;;;4970205;28;20459;-83
2021/08/02 09:49:25;;;;;;;1.57;1.10;;;20.70;99.90;;;;;;4973606;28;20510;-83
2021/08/02 09:51:54;;;;;;;1.00;1.00;;;20.70;99.90;;;;;;4972573;28;20624;-83
2021/08/02 09:54:25;;;;;;;1.67;1.00;;;20.80;99.90;;;;;;4974011;28;20466;-83
2021/08/02 09:56:55;;;;;;;1.40;0.97;;;20.90;99.90;;;;;;4972343;28;20467;-83
2021/08/02 09:59:24;;;;;;;1.40;0.90;;;20.90;99.90;;;;;;4972468;28;20517;-83
2021/08/02 10:01:54;;;;;;;2.20;1.00;;;21.00;99.90;;;;;;4971541;28;20479;-84
2021/08/02 10:04:24;;;;;;;1.10;1.00;;;21.00;99.90;;;;;;4965072;28;20462;-84
2021/08/02 10:06:54;;;;;;;1.93;0.90;;;21.20;99.90;;;;;;4967349;28;20460;-84
2021/08/02 10:09:23;;;;;;;1.37;1.27;;;21.30;99.90;;;;;;4973004;28;20454;-83
2021/08/02 10:11:51;;;;;;;1.40;0.83;;;21.20;99.90;;;;;;4971048;28;21081;-83
2021/08/02 10:14:30;;;;;;;0.90;0.90;;;21.00;99.90;;;;;;4971406;28;20846;-84
2021/08/02 10:17:04;;;;;;;1.90;1.00;;;20.90;99.90;;;;;;4985164;28;20517;-82
2021/08/02 10:19:39;;;;;;;1.20;1.10;;;21.00;99.90;;;;;;4971105;28;20463;-84
2021/08/02 10:22:09;;;;;;;1.20;1.10;;;20.70;99.90;;;;;;4971628;28;20459;-84
2021/08/02 10:24:47;;;;;;;2.23;1.20;;;20.60;99.90;;;;;;4970797;28;20459;-84
2021/08/02 10:27:26;;;;;;;1.20;1.17;;;20.60;99.90;;;;;;4973023;28;20459;-84
2021/08/02 10:30:20;;;;;;;1.53;1.30;;;20.60;99.90;;;;;;4970325;28;21093;-83
2021/08/02 10:32:56;;;;;;;2.40;1.07;;;20.70;99.90;;;;;;4964251;28;20451;-83
2021/08/02 10:35:38;;;;;;;1.40;1.00;;;20.70;99.90;;;;;;4962897;28;20834;-84
2021/08/02 10:38:08;;;;;;;0.87;0.87;;;20.70;99.90;;;;;;4968538;28;20455;-83
2021/08/02 10:40:52;;;;;;;1.20;1.10;;;20.90;99.90;;;;;;4969186;28;20475;-83
2021/08/02 10:43:36;;;;;;;1.50;1.20;;;21.10;99.90;;;;;;4973752;28;20502;-84
2021/08/02 10:46:22;;;;;;;0.90;0.90;;;21.00;99.90;;;;;;4972110;28;20545;-83
2021/08/02 10:48:53;;;;;;;1.00;0.93;;;21.00;99.90;;;;;;4969411;28;20470;-83
2021/08/02 10:51:23;;;;;;;1.13;0.80;;;20.90;99.90;;;;;;4971100;28;20486;-83
2021/08/02 10:53:57;;;;;;;1.63;1.13;;;21.10;99.90;;;;;;4955106;28;20471;-84
2021/08/02 10:56:26;;;;;;;1.43;1.20;;;21.20;99.90;;;;;;4985970;28;20970;-83
2021/08/02 10:58:56;;;;;;;0.80;0.80;;;21.30;99.90;;;;;;4986509;28;20502;-84
2021/08/02 11:01:27;;;;;;;0.90;0.70;;;21.30;99.90;;;;;;4970647;28;21071;-85
2021/08/02 11:03:56;;;;;;;0.67;0.67;;;21.40;99.90;;;;;;4970667;28;20950;-84
2021/08/02 11:06:34;;;;;;;1.17;1.00;;;21.30;99.90;;;;;;4969249;28;20494;-84
2021/08/02 11:09:02;;;;;;;0.77;0.77;;;21.20;99.90;;;;;;4971874;28;21006;-83
2021/08/02 11:11:46;;;;;;;0.90;0.60;;;21.10;99.90;;;;;;4967878;28;20483;-82
2021/08/02 11:14:17;;;;;;;1.13;0.80;;;20.50;99.90;;;;;;4972444;28;20537;-83
2021/08/02 11:16:48;;;;;;;1.10;1.00;;;20.40;99.90;;;;;;4971485;28;20831;-83
2021/08/02 11:19:21;;;;;;;1.20;0.80;;;20.50;99.90;;;;;;4969468;28;21044;-83
2021/08/02 11:22:00;;;;;;;1.00;1.00;;;20.50;99.90;;;;;;4971202;28;20478;-84
2021/08/02 11:24:29;;;;;;;2.03;0.90;;;20.60;99.90;;;;;;4985096;28;20523;-84
2021/08/02 11:26:59;;;;;;;1.20;1.10;;;20.80;99.90;;;;;;4971909;28;20487;-82
2021/08/02 11:29:29;;;;;;;4.47;1.17;;;20.70;99.90;;;;;;4970463;28;20492;-83
2021/08/02 11:32:03;;;;;;;0.90;0.80;;;20.50;99.90;;;;;;4968717;28;20479;-82
2021/08/02 11:34:32;;;;;;;0.80;0.80;;;20.80;99.90;;;;;;4954748;28;20463;-83
2021/08/02 11:37:03;;;;;;;0.87;0.87;;;20.90;99.90;;;;;;4982889;28;20459;-80
2021/08/02 11:39:32;;;;;;;1.27;1.17;;;21.00;99.90;;;;;;4984094;28;21069;-79
2021/08/02 11:42:01;;;;;;;1.30;1.00;;;21.20;99.90;;;;;;4967013;28;20479;-79
2021/08/02 11:44:30;;;;;;;1.13;1.03;;;21.40;99.90;;;;;;4968970;28;20482;-79
2021/08/02 11:47:00;;;;;;;1.43;1.10;;;21.60;99.90;;;;;;4982605;28;20876;-78
2021/08/02 11:49:29;;;;;;;1.10;1.00;;;21.70;99.90;;;;;;4968729;28;20610;-80
2021/08/02 11:51:57;;;;;;;1.10;1.00;;;21.80;99.90;;;;;;4968798;28;21049;-80
2021/08/02 11:54:26;;;;;;;1.77;1.10;;;21.90;99.90;;;;;;4970142;28;20528;-80
2021/08/02 11:56:55;;;;;;;0.90;0.90;;;21.90;99.90;;;;;;4968407;28;20451;-79
2021/08/02 11:59:25;;;;;;;1.40;1.00;;;21.90;99.90;;;;;;4967744;28;21022;-79
2021/08/02 12:01:54;;;;;;;2.80;1.03;;;21.80;99.90;;;;;;4968989;28;21071;-80
2021/08/02 12:04:24;;;;;;;2.50;1.10;;;21.90;99.90;;;;;;4973057;28;20640;-80
2021/08/02 12:06:56;;;;;;;0.83;0.83;;;21.80;99.90;;;;;;4969402;28;20485;-79
2021/08/02 12:09:33;;;;;;;1.17;0.80;;;21.80;99.90;;;;;;4973882;28;20472;-79
2021/08/02 12:12:03;;;;;;;1.43;1.30;;;21.90;99.90;;;;;;4972886;28;20484;-79
2021/08/02 12:14:33;;;;;;;2.10;1.00;;;22.00;99.90;;;;;;4971673;28;20476;-80
2021/08/02 12:17:06;;;;;;;1.20;1.10;;;22.10;99.90;;;;;;4971388;28;20837;-80
2021/08/02 12:19:47;;;;;;;2.00;1.00;;;22.10;99.90;;;;;;4971468;28;20457;-80
2021/08/02 12:22:22;;;;;;;0.90;0.90;;;22.20;99.90;;;;;;4969395;28;20492;-79
2021/08/02 12:24:52;;;;;;;1.13;1.00;;;22.20;99.90;;;;;;4966543;28;20466;-78
2021/08/02 12:27:21;;;;;;;1.10;1.00;;;22.20;99.90;;;;;;4967397;28;20537;-78
2021/08/02 12:29:57;;;;;;;2.33;1.20;;;22.20;99.90;;;;;;4978841;28;20473;-81
2021/08/02 12:32:40;;;;;;;1.10;1.00;;;22.30;99.90;;;;;;4971280;28;20462;-81
2021/08/02 12:35:13;;;;;;;1.00;1.00;;;22.40;99.90;;;;;;4973097;28;20516;-81
2021/08/02 12:37:42;;;;;;;0.80;0.80;;;22.40;99.90;;;;;;4969535;28;20882;-81
2021/08/02 12:40:13;;;;;;;0.83;0.83;;;22.50;99.90;;;;;;4973519;28;20838;-78
2021/08/02 12:42:43;;;;;;;1.20;1.10;;;22.50;99.90;;;;;;4973035;28;20449;-79
2021/08/02 12:45:14;;;;;;;1.30;1.20;;;22.60;99.90;;;;;;4971101;28;20461;-80
2021/08/02 12:47:46;;;;;;;1.10;0.90;;;22.60;99.90;;;;;;4972473;28;20486;-79
2021/08/02 12:50:17;;;;;;;1.10;1.00;;;22.60;99.90;;;;;;4972218;28;20486;-79
2021/08/02 12:52:46;;;;;;;1.77;0.90;;;22.70;99.90;;;;;;4971640;28;20446;-79
2021/08/02 12:55:14;;;;;;;2.67;1.00;;;22.60;99.90;;;;;;4964912;28;20476;-79
2021/08/02 12:57:43;;;;;;;1.10;1.00;;;22.60;99.90;;;;;;4982587;28;20577;-81
2021/08/02 13:00:14;;;;;;;1.10;1.00;;;22.50;99.90;;;;;;4987594;28;21260;-83
2021/08/02 13:02:43;;;;;;;1.00;1.00;;;22.50;99.90;;;;;;4970363;28;20451;-80
2021/08/02 13:05:12;;;;;;;1.33;0.97;;;22.50;99.90;;;;;;4966901;28;20549;-80
2021/08/02 13:07:41;;;;;;;1.70;0.90;;;22.60;99.90;;;;;;4971625;28;20478;-79
2021/08/02 13:10:11;;;;;;;1.80;0.80;;;22.50;99.90;;;;;;4987564;28;21025;-78